Time;durP1;ratioP1;P1;durP2;ratioP2;P2;SDS_P1;SDS_P2;PMS_P1;PMS_P2;Temp;Humidity;BMP_temperature;BMP_pressure;BME280_temperature;BME280_humidity;BME280_pressure;Samples;Min_cycle;Max_cycle;Signal;HPM_P1;HPM_P2
2022/04/12 00:01:51;;;;;;;;;;;10.50;99.90;;;;;;5017664;28;19922;-84
2022/04/12 00:04:16;;;;;;;;;;;10.40;99.90;;;;;;5018559;28;20021;-82
2022/04/12 00:06:44;;;;;;;;;;;10.50;99.90;;;;;;5014461;28;19914;-82
2022/04/12 00:09:09;;;;;;;;;;;10.50;99.90;;;;;;5014238;28;20000;-82
2022/04/12 00:11:35;;;;;;;;;;;10.50;99.90;;;;;;5015263;28;20541;-83
2022/04/12 00:14:00;;;;;;;;;;;10.50;99.90;;;;;;5018106;28;19969;-83
2022/04/12 00:16:26;;;;;;;;;;;10.40;99.90;;;;;;5016089;28;19929;-83
2022/04/12 00:19:07;;;;;;;;;;;10.40;99.90;;;;;;5015529;28;19924;-82
2022/04/12 00:21:34;;;;;;;;;;;10.40;99.90;;;;;;5017415;28;19913;-82
2022/04/12 00:24:06;;;;;;;;;;;10.40;99.90;;;;;;5014068;28;19920;-82
2022/04/12 00:26:34;;;;;;;;;;;10.40;99.90;;;;;;5011329;28;19919;-82
2022/04/12 00:29:00;;;;;;;;;;;10.40;99.90;;;;;;5014044;28;19932;-83
2022/04/12 00:31:25;;;;;;;;;;;10.40;99.90;;;;;;5011889;28;20056;-83
2022/04/12 00:33:53;;;;;;;;;;;10.30;99.90;;;;;;5017263;28;19918;-83
2022/04/12 00:36:18;;;;;;;;;;;10.30;99.90;;;;;;5013930;28;20396;-82
2022/04/12 00:38:44;;;;;;;;;;;10.30;99.90;;;;;;5016511;28;19913;-82
2022/04/12 00:41:11;;;;;;;;;;;10.30;99.90;;;;;;5007629;28;19927;-82
2022/04/12 00:43:42;;;;;;;;;;;10.30;99.90;;;;;;5015490;28;19920;-83
2022/04/12 00:46:07;;;;;;;;;;;10.30;99.90;;;;;;5010871;28;20588;-82
2022/04/12 00:48:33;;;;;;;;;;;10.40;99.90;;;;;;5014588;28;19918;-82
2022/04/12 00:50:59;;;;;;;;;;;10.30;99.90;;;;;;5017127;28;19941;-83
2022/04/12 00:53:28;;;;;;;;;;;10.40;99.90;;;;;;5016489;28;19961;-83
2022/04/12 00:55:54;;;;;;;;;;;10.30;99.90;;;;;;5011770;28;19959;-82
2022/04/12 00:58:19;;;;;;;;;;;10.30;99.90;;;;;;5016129;28;19952;-83
2022/04/12 01:00:45;;;;;;;;;;;10.40;99.90;;;;;;5016732;28;20381;-83
2022/04/12 01:03:10;;;;;;;;;;;10.30;99.90;;;;;;5017041;28;19937;-83
2022/04/12 01:05:36;;;;;;;;;;;10.30;99.90;;;;;;5016548;28;19964;-83
2022/04/12 01:08:05;;;;;;;;;;;10.30;99.90;;;;;;5016257;28;19921;-83
2022/04/12 01:10:34;;;;;;;;;;;10.30;99.90;;;;;;5015199;28;20492;-82
2022/04/12 01:12:59;;;;;;;;;;;10.30;99.90;;;;;;5013733;28;19914;-82
2022/04/12 01:15:25;;;;;;;;;;;10.30;99.90;;;;;;5013589;28;19962;-82
2022/04/12 01:17:51;;;;;;;;;;;10.30;99.90;;;;;;5016073;28;19917;-84
2022/04/12 01:20:18;;;;;;;;;;;10.30;99.90;;;;;;5015075;28;19913;-83
2022/04/12 01:22:46;;;;;;;;;;;10.30;99.90;;;;;;5015577;28;20002;-83
2022/04/12 01:25:12;;;;;;;;;;;10.20;99.90;;;;;;5015866;28;19917;-83
2022/04/12 01:27:37;;;;;;;;;;;10.30;99.90;;;;;;5015261;28;19919;-82
2022/04/12 01:30:03;;;;;;;;;;;10.20;99.90;;;;;;5016092;28;19914;-83
2022/04/12 01:32:28;;;;;;;;;;;10.20;99.90;;;;;;5011074;28;19921;-83
2022/04/12 01:34:54;;;;;;;;;;;10.20;99.90;;;;;;5014752;28;19963;-83
2022/04/12 01:37:19;;;;;;;;;;;10.20;99.90;;;;;;5013692;28;19968;-84
2022/04/12 01:39:45;;;;;;;;;;;10.20;99.90;;;;;;5015480;28;20409;-82
2022/04/12 01:42:13;;;;;;;;;;;10.10;99.90;;;;;;5031742;28;19959;-83
2022/04/12 01:44:38;;;;;;;;;;;10.10;99.90;;;;;;5016617;28;19948;-82
2022/04/12 01:47:04;;;;;;;;;;;10.20;99.90;;;;;;5014431;28;20355;-82
2022/04/12 01:49:29;;;;;;;;;;;10.10;99.90;;;;;;5015216;28;19920;-82
2022/04/12 01:51:54;;;;;;;;;;;10.20;99.90;;;;;;5013340;28;19920;-83
2022/04/12 01:54:20;;;;;;;;;;;10.20;99.90;;;;;;5011988;28;20270;-82
2022/04/12 01:56:45;;;;;;;;;;;10.20;99.90;;;;;;5012072;28;19936;-83
2022/04/12 01:59:11;;;;;;;;;;;10.20;99.90;;;;;;5016889;28;19917;-83
2022/04/12 02:01:36;;;;;;;;;;;10.20;99.90;;;;;;5014850;28;19919;-83
2022/04/12 02:04:02;;;;;;;;;;;10.20;99.90;;;;;;5016646;28;19921;-83
2022/04/12 02:06:27;;;;;;;;;;;10.20;99.90;;;;;;5015430;28;19967;-83
2022/04/12 02:08:53;;;;;;;;;;;10.20;99.90;;;;;;5015938;28;19921;-83
2022/04/12 02:11:18;;;;;;;;;;;10.20;99.90;;;;;;5014625;28;19914;-83
2022/04/12 02:13:44;;;;;;;;;;;10.20;99.90;;;;;;5017049;28;19917;-81
2022/04/12 02:16:09;;;;;;;;;;;10.30;99.90;;;;;;5015339;28;19914;-83
2022/04/12 02:18:35;;;;;;;;;;;10.20;99.90;;;;;;5014211;28;20396;-83
2022/04/12 02:21:00;;;;;;;;;;;10.20;99.90;;;;;;5017382;28;19971;-82
2022/04/12 02:23:26;;;;;;;;;;;10.20;99.90;;;;;;5019417;28;19956;-83
2022/04/12 02:25:51;;;;;;;;;;;10.20;99.90;;;;;;5015677;28;19922;-83
2022/04/12 02:28:17;;;;;;;;;;;10.20;99.90;;;;;;5010630;28;19993;-83
2022/04/12 02:30:43;;;;;;;;;;;10.20;99.90;;;;;;5014478;28;20170;-83
2022/04/12 02:33:09;;;;;;;;;;;10.20;99.90;;;;;;5015624;28;20047;-83
2022/04/12 02:35:34;;;;;;;;;;;10.20;99.90;;;;;;5016306;28;20452;-83
2022/04/12 02:38:00;;;;;;;;;;;10.30;99.90;;;;;;5015729;28;19914;-82
2022/04/12 02:40:25;;;;;;;;;;;10.30;99.90;;;;;;5014826;28;19913;-83
2022/04/12 02:42:51;;;;;;;;;;;10.30;99.90;;;;;;5014878;28;20534;-82
2022/04/12 02:45:16;;;;;;;;;;;10.30;99.90;;;;;;5014560;28;20285;-82
2022/04/12 02:47:42;;;;;;;;;;;10.30;99.90;;;;;;5012990;28;19913;-83
2022/04/12 02:50:11;;;;;;;;;;;10.40;99.90;;;;;;5013353;28;19914;-83
2022/04/12 02:52:36;;;;;;;;;;;10.30;99.90;;;;;;5017651;28;20037;-83
2022/04/12 02:55:02;;;;;;;;;;;10.40;99.90;;;;;;5032443;28;20426;-82
2022/04/12 02:57:30;;;;;;;;;;;10.40;99.90;;;;;;5013554;28;19989;-83
2022/04/12 02:59:55;;;;;;;;;;;10.40;99.90;;;;;;5019559;28;19914;-82
2022/04/12 03:02:21;;;;;;;;;;;10.40;99.90;;;;;;5018159;28;19972;-83
2022/04/12 03:04:46;;;;;;;;;;;10.30;99.90;;;;;;5019103;28;19921;-83
2022/04/12 03:07:12;;;;;;;;;;;10.30;99.90;;;;;;5012949;28;19921;-82
2022/04/12 03:09:38;;;;;;;;;;;10.30;99.90;;;;;;5017326;28;21944;-82
2022/04/12 03:12:04;;;;;;;;;;;10.30;99.90;;;;;;5015767;28;20172;-83
2022/04/12 03:14:30;;;;;;;;;;;10.30;99.90;;;;;;5012962;28;19932;-82
2022/04/12 03:16:55;;;;;;;;;;;10.30;99.90;;;;;;5012285;28;20012;-82
2022/04/12 03:19:21;;;;;;;;;;;10.20;99.90;;;;;;5016145;28;19918;-82
2022/04/12 03:21:46;;;;;;;;;;;10.20;99.90;;;;;;5018030;28;20004;-82
2022/04/12 03:24:12;;;;;;;;;;;10.20;99.90;;;;;;5017657;28;19940;-82
2022/04/12 03:26:37;;;;;;;;;;;10.10;99.90;;;;;;5015011;28;19940;-82
2022/04/12 03:29:03;;;;;;;;;;;10.10;99.90;;;;;;5017776;28;19918;-82
2022/04/12 03:31:28;;;;;;;;;;;10.10;99.90;;;;;;5016623;28;19914;-82
2022/04/12 03:33:53;;;;;;;;;;;10.10;99.90;;;;;;5033580;28;20285;-82
2022/04/12 03:36:19;;;;;;;;;;;10.10;99.90;;;;;;5031399;28;19914;-81
2022/04/12 03:38:51;;;;;;;;;;;10.00;99.90;;;;;;5015228;28;20381;-81
2022/04/12 03:41:22;;;;;;;;;;;10.00;99.90;;;;;;5015468;28;20344;-83
2022/04/12 03:43:48;;;;;;;;;;;10.00;99.90;;;;;;5016450;28;20293;-82
2022/04/12 03:46:14;;;;;;;;;;;10.00;99.90;;;;;;5016699;28;19921;-82
2022/04/12 03:48:39;;;;;;;;;;;9.90;99.90;;;;;;5015057;28;19914;-81
2022/04/12 03:51:05;;;;;;;;;;;9.90;99.90;;;;;;5017819;28;19939;-82
2022/04/12 03:53:30;;;;;;;;;;;9.90;99.90;;;;;;5013922;28;19944;-82
2022/04/12 03:55:56;;;;;;;;;;;9.80;99.90;;;;;;5016867;28;19913;-82
2022/04/12 03:58:22;;;;;;;;;;;9.80;99.90;;;;;;5014864;28;19914;-81
2022/04/12 04:00:48;;;;;;;;;;;9.70;99.90;;;;;;5015076;28;19914;-82
2022/04/12 04:03:13;;;;;;;;;;;9.70;99.90;;;;;;5012136;28;20266;-82
2022/04/12 04:05:39;;;;;;;;;;;9.70;99.90;;;;;;5013468;28;19941;-82
2022/04/12 04:08:04;;;;;;;;;;;9.60;99.90;;;;;;5013403;28;19913;-81
2022/04/12 04:10:30;;;;;;;;;;;9.60;99.90;;;;;;5015678;28;19960;-83
2022/04/12 04:12:58;;;;;;;;;;;9.50;99.90;;;;;;5016975;28;19960;-82
2022/04/12 04:15:26;;;;;;;;;;;9.50;99.90;;;;;;5016825;28;19921;-83
2022/04/12 04:17:51;;;;;;;;;;;9.40;99.90;;;;;;5014908;28;19941;-81
2022/04/12 04:20:17;;;;;;;;;;;9.40;99.90;;;;;;5016382;28;19913;-82
2022/04/12 04:22:43;;;;;;;;;;;9.40;99.90;;;;;;5015125;28;19951;-82
2022/04/12 04:25:09;;;;;;;;;;;9.30;99.90;;;;;;5014100;28;19918;-83
2022/04/12 04:27:35;;;;;;;;;;;9.30;99.90;;;;;;5015232;28;19920;-83
2022/04/12 04:30:03;;;;;;;;;;;9.30;99.90;;;;;;5017140;28;19924;-82
2022/04/12 04:32:29;;;;;;;;;;;9.30;99.90;;;;;;5016216;28;19914;-83
2022/04/12 04:34:54;;;;;;;;;;;9.30;99.90;;;;;;5018619;28;19920;-82
2022/04/12 04:37:22;;;;;;;;;;;9.20;99.90;;;;;;5018529;28;19914;-82
2022/04/12 04:39:50;;;;;;;;;;;9.20;99.90;;;;;;5016251;28;19922;-83
2022/04/12 04:42:20;;;;;;;;;;;9.20;99.90;;;;;;5017484;28;20301;-83
2022/04/12 04:44:49;;;;;;;;;;;9.10;99.90;;;;;;5016586;28;19928;-83
2022/04/12 04:47:15;;;;;;;;;;;9.10;99.90;;;;;;5016373;28;19928;-82
2022/04/12 04:49:41;;;;;;;;;;;9.10;99.90;;;;;;5016789;28;19917;-83
2022/04/12 04:52:06;;;;;;;;;;;9.10;99.90;;;;;;5017187;28;20017;-82
2022/04/12 04:54:32;;;;;;;;;;;9.10;99.90;;;;;;5015639;28;19921;-83
2022/04/12 04:56:57;;;;;;;;;;;9.10;99.90;;;;;;5017094;28;19936;-82
2022/04/12 04:59:23;;;;;;;;;;;9.10;99.90;;;;;;5016848;28;19964;-83
2022/04/12 05:01:48;;;;;;;;;;;9.10;99.90;;;;;;5013532;28;20017;-82
2022/04/12 05:04:13;;;;;;;;;;;9.10;99.90;;;;;;5013568;28;19959;-82
2022/04/12 05:06:39;;;;;;;;;;;9.10;99.90;;;;;;5016280;28;19913;-83
2022/04/12 05:09:04;;;;;;;;;;;9.10;99.90;;;;;;5016527;28;19939;-82
2022/04/12 05:11:31;;;;;;;;;;;9.20;99.90;;;;;;5014587;28;19918;-83
2022/04/12 05:13:57;;;;;;;;;;;9.20;99.90;;;;;;5014766;28;19913;-82
2022/04/12 05:16:22;;;;;;;;;;;9.30;99.90;;;;;;5018940;28;19927;-83
2022/04/12 05:18:47;;;;;;;;;;;9.30;99.90;;;;;;5014444;28;20341;-82
2022/04/12 05:21:13;;;;;;;;;;;9.40;99.90;;;;;;5016153;28;19920;-82
2022/04/12 05:23:38;;;;;;;;;;;9.50;99.90;;;;;;5014209;28;19913;-83
2022/04/12 05:26:04;;;;;;;;;;;9.60;99.90;;;;;;5016330;28;19921;-82
2022/04/12 05:28:29;;;;;;;;;;;9.60;99.90;;;;;;5016129;28;20385;-83
2022/04/12 05:30:55;;;;;;;;;;;9.80;99.90;;;;;;5013895;28;19973;-83
2022/04/12 05:33:21;;;;;;;;;;;9.90;99.90;;;;;;5014481;28;20006;-82
2022/04/12 05:35:46;;;;;;;;;;;10.10;99.90;;;;;;5018990;28;19914;-84
2022/04/12 05:38:11;;;;;;;;;;;10.30;99.90;;;;;;5019360;28;19936;-85
2022/04/12 05:40:40;;;;;;;;;;;11.70;99.90;;;;;;5022825;28;19972;-85
2022/04/12 05:43:07;;;;;;;;;;;14.50;99.90;;;;;;5022154;28;19928;-85
2022/04/12 05:45:33;;;;;;;;;;;17.20;99.90;;;;;;5022812;28;19918;-86
2022/04/12 05:48:00;;;;;;;;;;;19.40;99.90;;;;;;5019833;28;19913;-85
2022/04/12 05:50:27;;;;;;;;;;;22.30;99.90;;;;;;5019064;28;19921;-85
2022/04/12 05:52:53;;;;;;;;;;;24.30;99.90;;;;;;5017201;28;19913;-85
2022/04/12 05:55:22;;;;;;;;;;;26.40;99.90;;;;;;5015570;28;19928;-85
2022/04/12 05:57:51;;;;;;;;;;;26.90;99.90;;;;;;5008445;28;19975;-86
2022/04/12 06:00:18;;;;;;;;;;;28.10;99.90;;;;;;5015494;28;19940;-85
2022/04/12 06:02:48;;;;;;;;;;;28.30;99.90;;;;;;5016259;28;20301;-85
2022/04/12 06:05:16;;;;;;;;;;;29.30;99.90;;;;;;5018025;28;19918;-85
2022/04/12 06:07:42;;;;;;;;;;;30.30;99.90;;;;;;5016109;28;19948;-85
2022/04/12 06:10:13;;;;;;;;;;;29.90;99.90;;;;;;5015532;28;19913;-85
2022/04/12 06:12:45;;;;;;;;;;;30.90;99.90;;;;;;5015889;28;19949;-85
2022/04/12 06:15:11;;;;;;;;;;;29.40;99.90;;;;;;5013122;28;19918;-85
2022/04/12 06:17:38;;;;;;;;;;;29.70;99.90;;;;;;5019066;28;20404;-85
2022/04/12 06:20:05;;;;;;;;;;;29.20;99.90;;;;;;5018304;28;20256;-84
2022/04/12 06:22:42;;;;;;;;;;;30.70;99.90;;;;;;5018627;28;19925;-86
2022/04/12 06:25:10;;;;;;;;;;;31.00;99.90;;;;;;5011314;28;19928;-86
2022/04/12 06:27:56;;;;;;;;;;;;;;;;;;;;;
2022/04/12 06:33:09;;;;;;;;;;;29.00;99.90;;;;;;5019058;28;19921;-86
2022/04/12 06:35:45;;;;;;;;;;;28.40;99.90;;;;;;5015644;28;19913;-86
2022/04/12 06:38:11;;;;;;;;;;;28.00;99.90;;;;;;5026905;28;19917;-86
2022/04/12 06:40:36;;;;;;;;;;;26.40;99.90;;;;;;5015344;28;19916;-85
2022/04/12 06:43:22;;;;;;;;;;;25.70;99.90;;;;;;5085897;22;19963;-87
2022/04/12 06:45:53;;;;;;;;;;;26.30;99.90;;;;;;5034699;28;19916;-85
2022/04/12 06:51:01;;;;;;;;;;;30.00;99.90;;;;;;5100392;27;19917;-86
2022/04/12 06:53:29;;;;;;;;;;;32.30;99.90;;;;;;5072188;28;19976;-86
2022/04/12 06:55:55;;;;;;;;;;;34.00;99.90;;;;;;5065408;28;19913;-87
2022/04/12 06:58:20;;;;;;;;;;;34.30;99.90;;;;;;5065266;28;19913;-86
2022/04/12 07:00:46;;;;;;;;;;;34.50;99.90;;;;;;5062958;28;19935;-85
2022/04/12 07:03:14;;;;;;;;;;;34.00;99.90;;;;;;5049357;28;19917;-86
2022/04/12 07:05:39;;;;;;;;;;;35.50;99.90;;;;;;5063520;28;19962;-87
2022/04/12 07:08:07;;;;;;;;;;;36.50;99.90;;;;;;5065313;28;19921;-85
2022/04/12 07:10:33;;;;;;;;;;;36.10;99.90;;;;;;5067232;28;20031;-86
2022/04/12 07:12:58;;;;;;;;;;;36.30;99.90;;;;;;5066066;28;19913;-86
2022/04/12 07:15:29;;;;;;;;;;;35.80;99.90;;;;;;5066842;28;19920;-85
2022/04/12 07:17:55;;;;;;;;;;;35.60;99.90;;;;;;5068412;28;20388;-86
2022/04/12 07:20:20;;;;;;;;;;;35.70;99.90;;;;;;5066705;28;19947;-86
2022/04/12 07:22:48;;;;;;;;;;;35.30;99.90;;;;;;5066677;28;19920;-87
2022/04/12 07:25:13;;;;;;;;;;;35.00;99.90;;;;;;5069668;28;19912;-87
2022/04/12 07:27:39;;;;;;;;;;;36.70;99.90;;;;;;5063201;28;19913;-87
2022/04/12 07:30:06;;;;;;;;;;;38.70;99.90;;;;;;5064632;28;19956;-86
2022/04/12 07:32:33;;;;;;;;;;;38.60;99.90;;;;;;5069266;28;19927;-85
2022/04/12 07:34:59;;;;;;;;;;;39.60;99.90;;;;;;5064515;28;20291;-86
2022/04/12 07:37:27;;;;;;;;;;;38.50;99.90;;;;;;5063160;28;20003;-86
2022/04/12 07:39:53;;;;;;;;;;;37.00;99.90;;;;;;5046223;28;20261;-86
2022/04/12 07:42:20;;;;;;;;;;;35.90;99.90;;;;;;5067998;28;20372;-86
2022/04/12 07:44:45;;;;;;;;;;;35.90;99.90;;;;;;5066207;28;19920;-86
2022/04/12 07:47:11;;;;;;;;;;;36.50;99.90;;;;;;5064901;28;19923;-86
2022/04/12 07:49:36;;;;;;;;;;;36.00;99.90;;;;;;5064352;28;19921;-86
2022/04/12 07:52:02;;;;;;;;;;;35.20;99.90;;;;;;5066004;28;19928;-86
2022/04/12 07:54:27;;;;;;;;;;;34.60;99.90;;;;;;5070062;28;19913;-85
2022/04/12 07:56:53;;;;;;;;;;;34.50;99.90;;;;;;5067245;28;19913;-86
2022/04/12 07:59:18;;;;;;;;;;;35.00;99.90;;;;;;5047452;28;20019;-86
2022/04/12 08:01:44;;;;;;;;;;;35.90;99.90;;;;;;5055936;28;19913;-86
2022/04/12 08:04:09;;;;;;;;;;;35.60;99.90;;;;;;5049985;28;19916;-85
2022/04/12 08:06:34;;;;;;;;;;;35.30;99.90;;;;;;5050860;28;19917;-85
2022/04/12 08:09:00;;;;;;;;;;;34.00;99.90;;;;;;5059977;28;20292;-85
2022/04/12 08:11:25;;;;;;;;;;;31.70;99.90;;;;;;5061752;28;19947;-85
2022/04/12 08:13:51;;;;;;;;;;;31.40;99.90;;;;;;5032175;28;20483;-85
2022/04/12 08:16:16;;;;;;;;;;;31.80;99.90;;;;;;5035326;28;19917;-85
2022/04/12 08:18:43;;;;;;;;;;;31.80;99.90;;;;;;5054830;28;19912;-86
2022/04/12 08:21:08;;;;;;;;;;;33.00;99.90;;;;;;5054199;28;19912;-85
2022/04/12 08:23:34;;;;;;;;;;;34.00;99.90;;;;;;5057341;28;19978;-85
2022/04/12 08:25:59;;;;;;;;;;;36.40;99.90;;;;;;5056313;28;19920;-89
2022/04/12 08:28:24;;;;;;;;;;;35.90;99.90;;;;;;5053609;28;20381;-85
2022/04/12 08:30:50;;;;;;;;;;;35.00;99.90;;;;;;5036392;28;19935;-85
2022/04/12 08:33:18;;;;;;;;;;;35.10;99.90;;;;;;5047970;28;19913;-85
2022/04/12 08:35:43;;;;;;;;;;;35.60;99.90;;;;;;5052804;28;19920;-85
2022/04/12 08:38:09;;;;;;;;;;;35.90;99.90;;;;;;5049871;28;19912;-85
2022/04/12 08:40:34;;;;;;;;;;;37.10;99.90;;;;;;5052292;28;19913;-85
2022/04/12 08:43:00;;;;;;;;;;;37.50;99.90;;;;;;5047609;28;19919;-85
2022/04/12 08:45:28;;;;;;;;;;;36.20;99.90;;;;;;5050225;28;19931;-86
2022/04/12 08:47:54;;;;;;;;;;;35.90;99.90;;;;;;5052035;28;19920;-84
2022/04/12 08:50:20;;;;;;;;;;;36.70;99.90;;;;;;5047754;28;19916;-87
2022/04/12 08:52:46;;;;;;;;;;;36.70;99.90;;;;;;5049671;28;19913;-87
2022/04/12 08:55:12;;;;;;;;;;;35.80;99.90;;;;;;5031071;28;19913;-86
2022/04/12 08:57:38;;;;;;;;;;;35.60;99.90;;;;;;5049886;28;19939;-87
2022/04/12 09:00:05;;;;;;;;;;;35.20;99.90;;;;;;5031255;28;21105;-87
2022/04/12 09:02:31;;;;;;;;;;;35.90;99.90;;;;;;5050142;28;19913;-87
2022/04/12 09:04:56;;;;;;;;;;;35.20;99.90;;;;;;5051478;28;20300;-87
2022/04/12 09:07:28;;;;;;;;;;;34.70;99.90;;;;;;5048724;28;19999;-87
2022/04/12 09:10:04;;;;;;;;;;;34.80;99.90;;;;;;5049644;28;19952;-86
2022/04/12 09:12:31;;;;;;;;;;;35.90;99.90;;;;;;5047020;28;19921;-86
2022/04/12 09:14:58;;;;;;;;;;;35.10;99.90;;;;;;5050499;28;19917;-86
2022/04/12 09:17:35;;;;;;;;;;;33.80;99.90;;;;;;5047431;28;19913;-86
2022/04/12 09:20:17;;;;;;;;;;;33.50;99.90;;;;;;5049196;28;19921;-87
2022/04/12 09:22:43;;;;;;;;;;;34.20;99.90;;;;;;5049532;28;19974;-87
2022/04/12 09:25:13;;;;;;;;;;;33.30;99.90;;;;;;5046923;28;19912;-86
2022/04/12 09:27:39;;;;;;;;;;;33.40;99.90;;;;;;5052417;28;20366;-86
2022/04/12 09:30:09;;;;;;;;;;;34.40;99.90;;;;;;5031422;28;20384;-85
2022/04/12 09:32:36;;;;;;;;;;;34.00;99.90;;;;;;5046136;28;19920;-87
2022/04/12 09:35:02;;;;;;;;;;;34.20;99.90;;;;;;5050535;28;19969;-87
2022/04/12 09:37:28;;;;;;;;;;;33.30;99.90;;;;;;5046100;28;20362;-87
2022/04/12 09:39:54;;;;;;;;;;;34.40;99.90;;;;;;5051103;28;19943;-86
2022/04/12 09:42:40;;;;;;;;;;;34.80;99.90;;;;;;5052129;28;19971;-87
2022/04/12 09:45:07;;;;;;;;;;;34.50;99.90;;;;;;5048070;28;19945;-86
2022/04/12 09:47:32;;;;;;;;;;;34.70;99.90;;;;;;5049723;28;19987;-86
2022/04/12 09:50:01;;;;;;;;;;;34.10;99.90;;;;;;5031123;28;20346;-86
2022/04/12 09:52:27;;;;;;;;;;;33.60;99.90;;;;;;5036018;28;19921;-86
2022/04/12 09:54:54;;;;;;;;;;;34.10;99.90;;;;;;5054447;28;19913;-86
2022/04/12 09:57:19;;;;;;;;;;;35.20;99.90;;;;;;5051117;28;19952;-87
2022/04/12 09:59:45;;;;;;;;;;;34.20;99.90;;;;;;5049972;28;20435;-86
2022/04/12 10:02:11;;;;;;;;;;;34.90;99.90;;;;;;5032551;28;20396;-86
2022/04/12 10:04:37;;;;;;;;;;;35.20;99.90;;;;;;5047230;28;19948;-86
2022/04/12 10:07:04;;;;;;;;;;;34.80;99.90;;;;;;5052958;28;19913;-86
2022/04/12 10:09:30;;;;;;;;;;;34.10;99.90;;;;;;5048219;28;19948;-87
2022/04/12 10:11:56;;;;;;;;;;;33.40;99.90;;;;;;5054400;28;20026;-86
2022/04/12 10:14:22;;;;;;;;;;;33.40;99.90;;;;;;5050692;28;19944;-86
2022/04/12 10:16:47;;;;;;;;;;;32.80;99.90;;;;;;5051988;28;19952;-86
2022/04/12 10:19:13;;;;;;;;;;;33.80;99.90;;;;;;5035143;28;19913;-86
2022/04/12 10:21:38;;;;;;;;;;;33.30;99.90;;;;;;5059203;28;19913;-87
2022/04/12 10:24:04;;;;;;;;;;;33.30;99.90;;;;;;5050936;28;20398;-86
2022/04/12 10:26:30;;;;;;;;;;;31.90;99.90;;;;;;5046666;28;19920;-86
2022/04/12 10:29:00;;;;;;;;;;;32.50;99.90;;;;;;5047380;28;19917;-86
2022/04/12 10:31:30;;;;;;;;;;;32.50;99.90;;;;;;5046317;28;19913;-86
2022/04/12 10:34:01;;;;;;;;;;;32.90;99.90;;;;;;5050525;28;19913;-87
2022/04/12 10:36:45;;;;;;;;;;;33.40;99.90;;;;;;5048161;28;19921;-86
2022/04/12 10:39:12;;;;;;;;;;;33.40;99.90;;;;;;5030539;28;20295;-86
2022/04/12 10:41:38;;;;;;;;;;;33.40;99.90;;;;;;5049146;28;19928;-86
2022/04/12 10:44:04;;;;;;;;;;;33.00;99.90;;;;;;5048956;28;19947;-86
2022/04/12 10:46:47;;;;;;;;;;;33.70;99.90;;;;;;5049318;28;19925;-86
2022/04/12 10:49:12;;;;;;;;;;;34.00;99.90;;;;;;5051384;28;20415;-86
2022/04/12 10:51:38;;;;;;;;;;;34.10;99.90;;;;;;5049404;28;19952;-86
2022/04/12 10:54:05;;;;;;;;;;;34.70;99.90;;;;;;5030962;28;20434;-86
2022/04/12 10:56:30;;;;;;;;;;;35.40;99.90;;;;;;5031306;28;19917;-86
2022/04/12 10:58:56;;;;;;;;;;;35.60;99.90;;;;;;5049351;28;19981;-86
2022/04/12 11:01:28;;;;;;;;;;;34.20;99.90;;;;;;5046143;28;19955;-86
2022/04/12 11:03:54;;;;;;;;;;;33.20;99.90;;;;;;5045799;28;19913;-86
2022/04/12 11:06:27;;;;;;;;;;;33.10;99.90;;;;;;5029899;28;20581;-86
2022/04/12 11:09:06;;;;;;;;;;;33.00;99.90;;;;;;5047104;28;19917;-86
2022/04/12 11:11:40;;;;;;;;;;;32.50;99.90;;;;;;5047410;28;20002;-86
2022/04/12 11:14:24;;;;;;;;;;;31.90;99.90;;;;;;5040849;28;19913;-86
2022/04/12 11:16:51;;;;;;;;;;;30.80;99.90;;;;;;5046791;28;19917;-86
2022/04/12 11:19:19;;;;;;;;;;;31.10;99.90;;;;;;5045872;28;19916;-86
2022/04/12 11:21:50;;;;;;;;;;;30.20;99.90;;;;;;5046960;28;20331;-86
2022/04/12 11:24:17;;;;;;;;;;;31.30;99.90;;;;;;5045992;28;20281;-86
2022/04/12 11:26:48;;;;;;;;;;;31.20;99.90;;;;;;5047348;28;19912;-86
2022/04/12 11:29:18;;;;;;;;;;;32.20;99.90;;;;;;5051313;28;19917;-86
2022/04/12 11:31:43;;;;;;;;;;;31.90;99.90;;;;;;5047996;28;20327;-86
2022/04/12 11:34:09;;;;;;;;;;;32.00;99.90;;;;;;5048956;28;19913;-86
2022/04/12 11:36:35;;;;;;;;;;;32.50;99.90;;;;;;5050433;28;19928;-84
2022/04/12 11:39:00;;;;;;;;;;;33.00;99.90;;;;;;5050329;28;19909;-86
2022/04/12 11:41:27;;;;;;;;;;;33.40;99.90;;;;;;5053686;28;19936;-85
2022/04/12 11:44:03;;;;;;;;;;;33.10;99.90;;;;;;5052112;28;19920;-85
2022/04/12 11:46:30;;;;;;;;;;;32.10;99.90;;;;;;5038887;28;19967;-85
2022/04/12 11:49:07;;;;;;;;;;;32.50;99.90;;;;;;5049078;28;20023;-85
2022/04/12 11:51:43;;;;;;;;;;;31.80;99.90;;;;;;5051647;28;20336;-85
2022/04/12 11:54:18;;;;;;;;;;;31.60;99.90;;;;;;5048044;28;19913;-85
2022/04/12 11:56:44;;;;;;;;;;;30.70;99.90;;;;;;5055253;28;19913;-85
2022/04/12 11:59:09;;;;;;;;;;;29.70;99.90;;;;;;5054830;28;19920;-85
2022/04/12 12:01:35;;;;;;;;;;;29.00;99.90;;;;;;5062273;28;19921;-84
2022/04/12 12:04:07;;;;;;;;;;;28.50;99.90;;;;;;5056209;28;20151;-84
2022/04/12 12:06:33;;;;;;;;;;;28.00;99.90;;;;;;5057902;28;20022;-85
2022/04/12 12:08:58;;;;;;;;;;;28.60;99.90;;;;;;5060828;28;19917;-84
2022/04/12 12:11:23;;;;;;;;;;;28.00;99.90;;;;;;5061603;28;19949;-84
2022/04/12 12:13:56;;;;;;;;;;;27.90;99.90;;;;;;5058887;28;19933;-84
2022/04/12 12:16:22;;;;;;;;;;;28.20;99.90;;;;;;5059274;28;19999;-85
2022/04/12 12:18:47;;;;;;;;;;;28.50;99.90;;;;;;5064676;28;19944;-84
2022/04/12 12:21:16;;;;;;;;;;;29.20;99.90;;;;;;5057715;28;19920;-84
2022/04/12 12:23:42;;;;;;;;;;;29.90;99.90;;;;;;5056670;28;19913;-85
2022/04/12 12:26:07;;;;;;;;;;;30.70;99.90;;;;;;5062422;28;19966;-85
2022/04/12 12:28:38;;;;;;;;;;;31.30;99.90;;;;;;5055066;28;19984;-86
2022/04/12 12:31:07;;;;;;;;;;;31.90;99.90;;;;;;5053960;28;19994;-85
2022/04/12 12:33:37;;;;;;;;;;;32.40;99.90;;;;;;5044194;28;20388;-86
2022/04/12 12:36:03;;;;;;;;;;;33.10;99.90;;;;;;5055130;28;19987;-86
2022/04/12 12:38:28;;;;;;;;;;;32.80;99.90;;;;;;5058884;28;19987;-86
2022/04/12 12:40:57;;;;;;;;;;;32.50;99.90;;;;;;5063624;28;20666;-86
2022/04/12 12:43:25;;;;;;;;;;;32.30;99.90;;;;;;5042949;28;19949;-86
2022/04/12 12:45:50;;;;;;;;;;;31.20;99.90;;;;;;5040537;28;19917;-86
2022/04/12 12:48:16;;;;;;;;;;;30.40;99.90;;;;;;5041625;28;19924;-86
2022/04/12 12:50:42;;;;;;;;;;;30.10;99.90;;;;;;5053851;28;20478;-86
2022/04/12 12:53:09;;;;;;;;;;;30.10;99.90;;;;;;5059947;28;19916;-85
2022/04/12 12:55:35;;;;;;;;;;;29.70;99.90;;;;;;5065596;28;19916;-86
2022/04/12 12:58:05;;;;;;;;;;;29.80;99.90;;;;;;5050463;28;19920;-87
2022/04/12 13:00:31;;;;;;;;;;;29.60;99.90;;;;;;5035421;28;20364;-86
2022/04/12 13:03:04;;;;;;;;;;;30.00;99.90;;;;;;5048817;28;19924;-86
2022/04/12 13:05:29;;;;;;;;;;;30.30;99.90;;;;;;5051446;28;19920;-86
2022/04/12 13:07:56;;;;;;;;;;;30.50;99.90;;;;;;5053114;28;19913;-87
2022/04/12 13:10:21;;;;;;;;;;;30.10;99.90;;;;;;5033496;28;19917;-87
2022/04/12 13:12:47;;;;;;;;;;;30.20;99.90;;;;;;5054879;28;19963;-86
2022/04/12 13:15:13;;;;;;;;;;;30.00;99.90;;;;;;5055060;28;19916;-86
2022/04/12 13:17:39;;;;;;;;;;;29.80;99.90;;;;;;5049941;28;19912;-86
2022/04/12 13:20:05;;;;;;;;;;;28.90;99.90;;;;;;5050324;28;19920;-86
2022/04/12 13:22:32;;;;;;;;;;;28.50;99.90;;;;;;5054781;28;19935;-86
2022/04/12 13:24:57;;;;;;;;;;;28.70;99.90;;;;;;5053635;28;19948;-86
2022/04/12 13:27:23;;;;;;;;;;;29.00;99.90;;;;;;5050381;28;19944;-86
2022/04/12 13:29:49;;;;;;;;;;;28.90;99.90;;;;;;5050752;28;19951;-86
2022/04/12 13:32:14;;;;;;;;;;;28.40;99.90;;;;;;5049880;28;19912;-86
2022/04/12 13:34:43;;;;;;;;;;;28.80;99.90;;;;;;5045304;28;19917;-86
2022/04/12 13:37:08;;;;;;;;;;;28.60;99.90;;;;;;5034735;28;20291;-86
2022/04/12 13:39:34;;;;;;;;;;;28.30;99.90;;;;;;5047086;28;19919;-86
2022/04/12 13:42:01;;;;;;;;;;;28.30;99.90;;;;;;5048498;28;19952;-86
2022/04/12 13:44:27;;;;;;;;;;;27.90;99.90;;;;;;5051285;28;19917;-86
2022/04/12 13:46:52;;;;;;;;;;;28.20;99.90;;;;;;5049510;28;19914;-86
2022/04/12 13:49:18;;;;;;;;;;;28.60;99.90;;;;;;5051779;28;19923;-86
2022/04/12 13:51:43;;;;;;;;;;;29.20;99.90;;;;;;5050367;28;19935;-86
2022/04/12 13:54:09;;;;;;;;;;;29.10;99.90;;;;;;5051712;28;19928;-86
2022/04/12 13:56:35;;;;;;;;;;;29.00;99.90;;;;;;5048897;28;20265;-86
2022/04/12 13:59:00;;;;;;;;;;;29.10;99.90;;;;;;5053631;28;19991;-88
2022/04/12 14:01:28;;;;;;;;;;;29.30;99.90;;;;;;5033893;28;19916;-87
2022/04/12 14:03:55;;;;;;;;;;;29.40;99.90;;;;;;5050495;28;19912;-86
2022/04/12 14:06:21;;;;;;;;;;;29.70;99.90;;;;;;5053934;28;19919;-86
2022/04/12 14:08:47;;;;;;;;;;;30.00;99.90;;;;;;5033364;28;20019;-86
2022/04/12 14:11:14;;;;;;;;;;;30.20;99.90;;;;;;5048834;28;20330;-87
2022/04/12 14:13:44;;;;;;;;;;;30.10;99.90;;;;;;5032626;28;19920;-86
2022/04/12 14:16:10;;;;;;;;;;;29.70;99.90;;;;;;5054726;28;19913;-86
2022/04/12 14:18:35;;;;;;;;;;;29.60;99.90;;;;;;5047502;28;19975;-86
2022/04/12 14:21:01;;;;;;;;;;;29.80;99.90;;;;;;5060358;28;19939;-87
2022/04/12 14:23:26;;;;;;;;;;;29.90;99.90;;;;;;5054067;28;19960;-86